Sunflower Gold — JD2460 — position and weather

sailwx.info

Track history (hours):
 
Tides and Currents Weather Stations Pressure Air Temp Water Temp Dewpoint Dewpoint Depression Visibility Wind Speed Wind Dir Waves Ship Positions

Sunflower Gold

Last reported at 2017-Dec-18 13:33 UTC. Time now 2017-Dec-18 16:54 UTC.
Position N 34°26' E 134°01'.

Length 166 m; draft 5.8 m.

Type: Passenger vessel. MMSI: 431000331.

Date/timePositionNaut miles runAvg speedWind from/ knotsBaromVisibWave heightAir tempDewpointWater temp
2017-Dec-18 13:33N 34°26' E 134°01'215.7
2017-Dec-18 13:26N 34°27' E 134°03'922.0
2017-Dec-18 13:00N 34°24' E 134°14'1019.9
2017-Dec-18 12:30N 34°26' E 134°26'1020.1
2017-Dec-18 12:00N 34°30' E 134°37'1020.5
2017-Dec-18 11:30N 34°34' E 134°48'1121.3
2017-Dec-18 11:00N 34°38' E 135°00'1020.2
2017-Dec-18 10:30N 34°37' E 135°13'612.7
2017-Dec-18 10:00N 34°42' E 135°17'0 0.0
2017-Dec-18 09:30N 34°42' E 135°17'0 0.0
2017-Dec-18 09:00N 34°42' E 135°17'0 0.0
2017-Dec-18 08:30N 34°42' E 135°17'0 0.0
2017-Dec-18 08:00N 34°42' E 135°17'0 0.0
2017-Dec-18 07:30N 34°42' E 135°17'0 0.0
2017-Dec-18 07:00N 34°42' E 135°17'0 0.0
2017-Dec-18 06:30N 34°42' E 135°17'0 0.0
2017-Dec-18 06:00N 34°42' E 135°17'0 0.0
2017-Dec-18 05:30N 34°42' E 135°17'0 0.0
2017-Dec-18 05:00N 34°42' E 135°17'0 0.0
2017-Dec-18 04:30N 34°42' E 135°17'0 0.0
2017-Dec-18 04:00N 34°42' E 135°17'0 0.0
2017-Dec-18 03:30N 34°42' E 135°17'0 0.0
2017-Dec-18 03:00N 34°42' E 135°17'0 0.0
2017-Dec-18 02:30N 34°42' E 135°17'0 0.0
2017-Dec-18 02:00N 34°42' E 135°17'0 0.0
2017-Dec-18 01:30N 34°42' E 135°17'0 0.0
2017-Dec-18 01:00N 34°42' E 135°17'0 0.0
2017-Dec-18 00:30N 34°42' E 135°17'0 0.0
2017-Dec-17 23:57N 34°42' E 135°17'0 0.0
2017-Dec-17 23:30N 34°42' E 135°17'0 0.0
2017-Dec-17 23:00N 34°42' E 135°17'0 0.0
2017-Dec-17 22:30N 34°42' E 135°17'0 0.0
2017-Dec-17 22:00N 34°42' E 135°17'0 0.1
2017-Dec-17 21:30N 34°42' E 135°17'510.0
2017-Dec-17 21:00N 34°37' E 135°17'1020.2
2017-Dec-17 20:30N 34°35' E 135°05'816.5
2017-Dec-17 20:00N 34°36' E 134°55'1020.7
2017-Dec-17 19:30N 34°31' E 134°44'1020.8
2017-Dec-17 19:00N 34°27' E 134°32'1020.8
2017-Dec-17 18:30N 34°24' E 134°20'7817.9
2017-Dec-17 14:09N 34°04' E 132°49'322.7
2017-Dec-17 14:00N 34°01' E 132°47'1122.8
2017-Dec-17 13:31N 33°53' E 132°37'1120.9
2017-Dec-17 13:00N 33°46' E 132°28'2120.9
2017-Dec-17 12:01N 33°33' E 132°08'721.2
2017-Dec-17 11:42N 33°29' E 132°02'421.3
2017-Dec-17 11:30N 33°27' E 131°58'1121.3
2017-Dec-17 11:01N 33°22' E 131°47'1120.4
2017-Dec-17 10:29N 33°16' E 131°36'1 0.1
2017-Dec-16 22:12N 33°15' E 131°35'419.0
2017-Dec-16 21:59N 33°18' E 131°39'1021.0
2017-Dec-16 21:30N 33°25' E 131°47'1020.0
2017-Dec-16 21:00N 33°33' E 131°55'2220.0
2017-Dec-16 19:56N 33°41' E 132°19'920.4
2017-Dec-16 19:29N 33°46' E 132°28'1020.3
2017-Dec-16 19:00N 33°53' E 132°36'1020.2
2017-Dec-16 18:30N 34°00' E 132°44'6917.5
2017-Dec-16 14:34N 34°26' E 134°02'316.8
2017-Dec-16 14:22N 34°27' E 134°06'718.3
2017-Dec-16 14:00N 34°25' E 134°13'1018.9
2017-Dec-16 13:30N 34°26' E 134°25'1019.7
2017-Dec-16 13:00N 34°29' E 134°36'1019.9
2017-Dec-16 12:31N 34°33' E 134°47'1020.1
2017-Dec-16 12:00N 34°37' E 134°58'918.8
2017-Dec-16 11:30N 34°36' E 135°09'917.4
2017-Dec-16 11:00N 34°41' E 135°18'1 2.5
2017-Dec-16 10:30N 34°42' E 135°17'0 0.0
2017-Dec-16 10:00N 34°42' E 135°17'0 0.0
2017-Dec-16 09:30N 34°42' E 135°17'0 0.0
2017-Dec-16 09:00N 34°42' E 135°17'0 0.0
2017-Dec-16 08:30N 34°42' E 135°17'0 0.0
2017-Dec-16 08:00N 34°42' E 135°17'0 0.0
2017-Dec-16 07:30N 34°42' E 135°17'0 0.0
2017-Dec-16 07:00N 34°42' E 135°17'0 0.0
2017-Dec-16 06:30N 34°42' E 135°17'0 0.0
2017-Dec-16 06:00N 34°42' E 135°17'0 0.0
2017-Dec-16 05:30N 34°42' E 135°17'0 0.0
2017-Dec-16 05:00N 34°42' E 135°17'0 0.0
2017-Dec-16 04:30N 34°42' E 135°17'0 0.0
2017-Dec-16 04:00N 34°42' E 135°17'0 0.0
2017-Dec-16 03:30N 34°42' E 135°17'0 0.0
2017-Dec-16 03:00N 34°42' E 135°17'0 0.0
2017-Dec-16 02:30N 34°42' E 135°17'0 0.0
2017-Dec-16 02:00N 34°42' E 135°17'0 0.0
2017-Dec-16 01:30N 34°42' E 135°17'0 0.0
2017-Dec-16 01:00N 34°42' E 135°17'0 0.0
2017-Dec-16 00:30N 34°42' E 135°17'0 0.0
2017-Dec-16 00:00N 34°42' E 135°17'0 0.0
2017-Dec-15 23:30N 34°42' E 135°17'0 0.0
2017-Dec-15 23:00N 34°42' E 135°17'2 3.5
2017-Dec-15 22:31N 34°40' E 135°18'815.9
2017-Dec-15 22:01N 34°35' E 135°11'816.6
2017-Dec-15 21:30N 34°37' E 135°02'815.4
2017-Dec-15 21:01N 34°35' E 134°53'917.9
2017-Dec-15 20:30N 34°31' E 134°43'919.0
2017-Dec-15 20:00N 34°27' E 134°32'1019.2
2017-Dec-15 19:30N 34°24' E 134°21'1018.8
2017-Dec-15 19:00N 34°25' E 134°10'7116.1
2017-Dec-15 14:33N 34°02' E 132°48'119.5
2017-Dec-15 14:29N 34°01' E 132°47'919.3
2017-Dec-15 14:00N 33°55' E 132°39'1119.8
2017-Dec-15 13:27N 33°47' E 132°30'919.1
2017-Dec-15 12:59N 33°42' E 132°21'1420.2
2017-Dec-15 12:18N 33°33' E 132°08'720.4
2017-Dec-15 11:57N 33°29' E 132°02'920.6
2017-Dec-15 11:30N 33°23' E 131°52'1020.8
2017-Dec-15 11:00N 33°19' E 131°41'7 9.6
2017-Dec-15 10:19N 33°15' E 131°35'54 3.4
2017-Dec-14 18:27N 33°47' E 132°28'920.1
2017-Dec-14 18:00N 33°54' E 132°35'1020.4
2017-Dec-14 17:31N 34°00' E 132°44'7017.5
2017-Dec-14 13:31N 34°27' E 134°03'017.5
2017-Dec-14 13:30N 34°27' E 134°03'1018.9
2017-Dec-14 13:00N 34°24' E 134°14'918.2
2017-Dec-14 12:30N 34°26' E 134°24'1019.4
2017-Dec-14 12:01N 34°30' E 134°35'1020.5
2017-Dec-14 11:30N 34°33' E 134°47'1121.0
2017-Dec-14 11:00N 34°38' E 134°59'1121.6
2017-Dec-14 10:30N 34°36' E 135°12'713.8
2017-Dec-14 10:00N 34°42' E 135°17'0 0.0
2017-Dec-14 09:28N 34°42' E 135°17'0 0.0
2017-Dec-14 08:58N 34°42' E 135°17'0 0.0
2017-Dec-14 08:28N 34°42' E 135°17'0 0.0
2017-Dec-14 07:58N 34°42' E 135°17'0 0.0
2017-Dec-14 07:28N 34°42' E 135°17'0 0.0
2017-Dec-14 06:58N 34°42' E 135°17'0 0.0
2017-Dec-14 06:28N 34°42' E 135°17'0 0.0
2017-Dec-14 05:58N 34°42' E 135°17'0 0.0
2017-Dec-14 05:28N 34°42' E 135°17'0 0.0
2017-Dec-14 04:58N 34°42' E 135°17'0 0.0
2017-Dec-14 04:28N 34°42' E 135°17'0 0.0
2017-Dec-14 03:55N 34°42' E 135°17'0 0.0
2017-Dec-14 03:28N 34°42' E 135°17'0 0.0
2017-Dec-14 02:58N 34°42' E 135°17'0 0.0
2017-Dec-14 02:28N 34°42' E 135°17'0 0.0
2017-Dec-14 01:58N 34°42' E 135°17'0 0.0
2017-Dec-14 01:28N 34°42' E 135°17'0 0.0
2017-Dec-14 00:58N 34°42' E 135°17'0 0.0
2017-Dec-14 00:28N 34°42' E 135°17'0 0.0
2017-Dec-13 23:58N 34°42' E 135°17'0 0.0
2017-Dec-13 23:28N 34°42' E 135°17'0 0.0
2017-Dec-13 22:58N 34°42' E 135°17'0 0.0
2017-Dec-13 22:28N 34°42' E 135°17'0 0.0
2017-Dec-13 21:58N 34°42' E 135°17'0 0.3
2017-Dec-13 21:31N 34°42' E 135°17'713.5
2017-Dec-13 21:00N 34°36' E 135°13'1019.6
2017-Dec-13 20:30N 34°36' E 135°02'917.5
2017-Dec-13 20:01N 34°34' E 134°51'1020.5
2017-Dec-13 19:30N 34°30' E 134°40'1121.1
2017-Dec-13 19:00N 34°26' E 134°28'1121.2
2017-Dec-13 18:30N 34°24' E 134°16'7416.6
2017-Dec-13 14:02N 34°04' E 132°49'322.3
2017-Dec-13 13:53N 34°01' E 132°46'821.5
2017-Dec-13 13:30N 33°55' E 132°39'1222.0
2017-Dec-13 12:58N 33°47' E 132°29'2322.3
2017-Dec-13 11:56N 33°34' E 132°07'1021.8
2017-Dec-13 11:30N 33°28' E 131°57'1122.4
2017-Dec-13 11:00N 33°22' E 131°46'1120.7
2017-Dec-13 10:29N 33°16' E 131°36'1 0.1
2017-Dec-12 21:17N 33°15' E 131°35'519.6
2017-Dec-12 21:01N 33°19' E 131°40'1122.2
2017-Dec-12 20:30N 33°25' E 131°51'1522.1
2017-Dec-12 19:48N 33°34' E 132°06'1022.2
2017-Dec-12 19:22N 33°40' E 132°15'822.2
2017-Dec-12 19:00N 33°45' E 132°23'1122.0
2017-Dec-12 18:30N 33°52' E 132°34'1121.9
2017-Dec-12 18:00N 33°59' E 132°43'7615.9
2017-Dec-12 13:14N 34°26' E 134°09'520.3
2017-Dec-12 13:00N 34°24' E 134°14'1020.9
2017-Dec-12 12:30N 34°27' E 134°26'1121.6
2017-Dec-12 12:00N 34°31' E 134°38'1020.6
2017-Dec-12 11:30N 34°34' E 134°50'1019.4
2017-Dec-12 11:01N 34°38' E 135°01'1019.3
2017-Dec-12 10:30N 34°36' E 135°12'713.5
2017-Dec-12 10:01N 34°42' E 135°17'0 0.0
2017-Dec-12 09:29N 34°42' E 135°17'0 0.0
2017-Dec-12 08:59N 34°42' E 135°17'0 0.0
2017-Dec-12 08:29N 34°42' E 135°17'0 0.0
2017-Dec-12 07:59N 34°42' E 135°17'0 0.0
2017-Dec-12 07:29N 34°42' E 135°17'0 0.0
2017-Dec-12 06:59N 34°42' E 135°17'0 0.0
2017-Dec-12 06:29N 34°42' E 135°17'0 0.0
2017-Dec-12 05:59N 34°42' E 135°17'0 0.0
2017-Dec-12 05:29N 34°42' E 135°17'0 0.0
2017-Dec-12 04:59N 34°42' E 135°17'0 0.0
2017-Dec-12 04:29N 34°42' E 135°17'0 0.0
2017-Dec-12 03:59N 34°42' E 135°17'0 0.0
2017-Dec-12 03:29N 34°42' E 135°17'0 0.0
2017-Dec-12 02:59N 34°42' E 135°17'0 0.0
2017-Dec-12 02:26N 34°42' E 135°17'0 0.0
2017-Dec-12 01:59N 34°42' E 135°17'0 0.0
2017-Dec-12 01:23N 34°42' E 135°17'0 0.0
2017-Dec-12 00:59N 34°42' E 135°17'0 0.0
2017-Dec-12 00:29N 34°42' E 135°17'0 0.0
2017-Dec-11 23:59N 34°42' E 135°17'0 0.0
2017-Dec-11 23:29N 34°42' E 135°17'0 0.0
2017-Dec-11 22:59N 34°42' E 135°17'0 0.0
2017-Dec-11 22:29N 34°42' E 135°17'0 0.0
2017-Dec-11 21:59N 34°42' E 135°17'0 0.0
2017-Dec-11 21:31N 34°42' E 135°17'510.5
2017-Dec-11 21:01N 34°37' E 135°17'1020.5
2017-Dec-11 20:31N 34°35' E 135°05'918.6
2017-Dec-11 20:01N 34°35' E 134°53'1121.1
2017-Dec-11 19:30N 34°31' E 134°42'1121.4
2017-Dec-11 19:00N 34°27' E 134°30'1121.3
2017-Dec-11 18:31N 34°23' E 134°17'7717.0
2017-Dec-11 13:57N 34°02' E 132°47'1022.2
2017-Dec-11 13:30N 33°55' E 132°39'1322.3
2017-Dec-11 12:55N 33°46' E 132°27'2422.3
2017-Dec-11 11:49N 33°36' E 132°01'721.9
2017-Dec-11 11:30N 33°32' E 131°54'1322.6
2017-Dec-11 10:57N 33°22' E 131°45'1020.7
2017-Dec-11 10:27N 33°15' E 131°35'0 0.0
2017-Dec-10 21:09N 33°16' E 131°35'319.4
2017-Dec-10 20:58N 33°18' E 131°38'1020.6
2017-Dec-10 20:30N 33°23' E 131°48'1021.1
2017-Dec-10 20:00N 33°29' E 131°58'2121.4
2017-Dec-10 19:02N 33°41' E 132°19'121.5
2017-Dec-10 19:00N 33°41' E 132°19'1121.3
2017-Dec-10 18:29N 33°48' E 132°30'1021.1
2017-Dec-10 18:00N 33°55' E 132°38'8017.4
2017-Dec-10 13:24N 34°26' E 134°08'819.8
2017-Dec-10 12:58N 34°25' E 134°18'920.2
2017-Dec-10 12:30N 34°27' E 134°29'1020.4
2017-Dec-10 12:01N 34°31' E 134°40'1019.7
2017-Dec-10 11:30N 34°35' E 134°51'917.4
2017-Dec-10 11:01N 34°37' E 135°02'918.4
2017-Dec-10 10:30N 34°37' E 135°13'612.6
2017-Dec-10 10:00N 34°42' E 135°17'0 0.0
2017-Dec-10 09:30N 34°42' E 135°17'0 0.0
2017-Dec-10 09:00N 34°42' E 135°17'0 0.0
2017-Dec-10 08:30N 34°42' E 135°17'0 0.0
2017-Dec-10 08:00N 34°42' E 135°17'0 0.0
2017-Dec-10 07:30N 34°42' E 135°17'0 0.0
2017-Dec-10 07:00N 34°42' E 135°17'0 0.0
2017-Dec-10 06:30N 34°42' E 135°17'0 0.0
2017-Dec-10 06:00N 34°42' E 135°17'0 0.0
2017-Dec-10 05:30N 34°42' E 135°17'0 0.0
2017-Dec-10 05:00N 34°42' E 135°17'0 0.0
2017-Dec-10 04:30N 34°42' E 135°17'0 0.0
2017-Dec-10 04:00N 34°42' E 135°17'0 0.0
2017-Dec-10 03:30N 34°42' E 135°17'0 0.0
2017-Dec-10 03:00N 34°42' E 135°17'0 0.0
2017-Dec-10 02:30N 34°42' E 135°17'0 0.0
2017-Dec-10 02:00N 34°42' E 135°17'0 0.0
2017-Dec-10 01:30N 34°42' E 135°17'0 0.0
2017-Dec-10 01:00N 34°42' E 135°17'0 0.0
2017-Dec-10 00:30N 34°42' E 135°17'0 0.0
2017-Dec-10 00:00N 34°42' E 135°17'0 0.0
2017-Dec-09 23:30N 34°42' E 135°17'0 0.0
2017-Dec-09 22:57N 34°42' E 135°17'2 5.3
2017-Dec-09 22:31N 34°40' E 135°18'815.5
2017-Dec-09 22:01N 34°35' E 135°11'917.3
2017-Dec-09 21:31N 34°37' E 135°01'918.5
2017-Dec-09 21:01N 34°34' E 134°50'917.6
2017-Dec-09 20:30N 34°30' E 134°41'917.5
2017-Dec-09 20:00N 34°27' E 134°31'918.2
2017-Dec-09 19:31N 34°24' E 134°20'7716.7
2017-Dec-09 14:52N 34°05' E 132°49'719.8
2017-Dec-09 14:31N 33°59' E 132°45'1019.4
2017-Dec-09 14:00N 33°52' E 132°36'1019.1
2017-Dec-09 13:29N 33°46' E 132°27'2219.2
2017-Dec-09 12:22N 33°34' E 132°05'718.9
2017-Dec-09 12:01N 33°30' E 131°59'918.8
2017-Dec-09 11:30N 33°25' E 131°50'918.6
2017-Dec-09 11:00N 33°19' E 131°41'6 0.5
2017-Dec-08 22:12N 33°15' E 131°35'316.4
2017-Dec-08 22:00N 33°18' E 131°37'1020.1
2017-Dec-08 21:30N 33°23' E 131°47'1020.7
2017-Dec-08 21:00N 33°30' E 131°57'2121.1
2017-Dec-08 20:00N 33°41' E 132°19'1221.3
2017-Dec-08 19:27N 33°48' E 132°30'1021.4
2017-Dec-08 18:59N 33°55' E 132°39'1221.0
2017-Dec-08 18:25N 34°04' E 132°48'1018.1
2017-Dec-08 17:52N 34°10' E 132°58'5716.3
2017-Dec-08 14:23N 34°27' E 134°03'820.8
2017-Dec-08 14:00N 34°25' E 134°13'  
Track history (hours):
 
Tides and Currents Weather Stations Pressure Air Temp Water Temp Dewpoint Dewpoint Depression Visibility Wind Speed Wind Dir Waves Ship Positions

Sunflower Gold

Last reported at 2017-Dec-18 13:33 UTC. Time now 2017-Dec-18 16:54 UTC.
Position N 34°26' E 134°01'.

Length 166 m; draft 5.8 m.

Type: Passenger vessel. MMSI: 431000331.

Date/timePositionNaut miles runAvg speedWind from/ knotsBaromVisibWave heightAir tempDewpointWater temp
2017-Dec-18 13:33N 34°26' E 134°01'215.7
2017-Dec-18 13:26N 34°27' E 134°03'922.0
2017-Dec-18 13:00N 34°24' E 134°14'1019.9
2017-Dec-18 12:30N 34°26' E 134°26'1020.1
2017-Dec-18 12:00N 34°30' E 134°37'1020.5
2017-Dec-18 11:30N 34°34' E 134°48'1121.3
2017-Dec-18 11:00N 34°38' E 135°00'1020.2
2017-Dec-18 10:30N 34°37' E 135°13'612.7
2017-Dec-18 10:00N 34°42' E 135°17'0 0.0
2017-Dec-18 09:30N 34°42' E 135°17'0 0.0
2017-Dec-18 09:00N 34°42' E 135°17'0 0.0
2017-Dec-18 08:30N 34°42' E 135°17'0 0.0
2017-Dec-18 08:00N 34°42' E 135°17'0 0.0
2017-Dec-18 07:30N 34°42' E 135°17'0 0.0
2017-Dec-18 07:00N 34°42' E 135°17'0 0.0
2017-Dec-18 06:30N 34°42' E 135°17'0 0.0
2017-Dec-18 06:00N 34°42' E 135°17'0 0.0
2017-Dec-18 05:30N 34°42' E 135°17'0 0.0
2017-Dec-18 05:00N 34°42' E 135°17'0 0.0
2017-Dec-18 04:30N 34°42' E 135°17'0 0.0
2017-Dec-18 04:00N 34°42' E 135°17'0 0.0
2017-Dec-18 03:30N 34°42' E 135°17'0 0.0
2017-Dec-18 03:00N 34°42' E 135°17'0 0.0
2017-Dec-18 02:30N 34°42' E 135°17'0 0.0
2017-Dec-18 02:00N 34°42' E 135°17'0 0.0
2017-Dec-18 01:30N 34°42' E 135°17'0 0.0
2017-Dec-18 01:00N 34°42' E 135°17'0 0.0
2017-Dec-18 00:30N 34°42' E 135°17'0 0.0
2017-Dec-17 23:57N 34°42' E 135°17'0 0.0
2017-Dec-17 23:30N 34°42' E 135°17'0 0.0
2017-Dec-17 23:00N 34°42' E 135°17'0 0.0
2017-Dec-17 22:30N 34°42' E 135°17'0 0.0
2017-Dec-17 22:00N 34°42' E 135°17'0 0.1
2017-Dec-17 21:30N 34°42' E 135°17'510.0
2017-Dec-17 21:00N 34°37' E 135°17'1020.2
2017-Dec-17 20:30N 34°35' E 135°05'816.5
2017-Dec-17 20:00N 34°36' E 134°55'1020.7
2017-Dec-17 19:30N 34°31' E 134°44'1020.8
2017-Dec-17 19:00N 34°27' E 134°32'1020.8
2017-Dec-17 18:30N 34°24' E 134°20'7817.9
2017-Dec-17 14:09N 34°04' E 132°49'322.7
2017-Dec-17 14:00N 34°01' E 132°47'1122.8
2017-Dec-17 13:31N 33°53' E 132°37'1120.9
2017-Dec-17 13:00N 33°46' E 132°28'2120.9
2017-Dec-17 12:01N 33°33' E 132°08'721.2
2017-Dec-17 11:42N 33°29' E 132°02'421.3
2017-Dec-17 11:30N 33°27' E 131°58'1121.3
2017-Dec-17 11:01N 33°22' E 131°47'1120.4
2017-Dec-17 10:29N 33°16' E 131°36'1 0.1
2017-Dec-16 22:12N 33°15' E 131°35'419.0
2017-Dec-16 21:59N 33°18' E 131°39'1021.0
2017-Dec-16 21:30N 33°25' E 131°47'1020.0
2017-Dec-16 21:00N 33°33' E 131°55'2220.0
2017-Dec-16 19:56N 33°41' E 132°19'920.4
2017-Dec-16 19:29N 33°46' E 132°28'1020.3
2017-Dec-16 19:00N 33°53' E 132°36'1020.2
2017-Dec-16 18:30N 34°00' E 132°44'6917.5
2017-Dec-16 14:34N 34°26' E 134°02'316.8
2017-Dec-16 14:22N 34°27' E 134°06'718.3
2017-Dec-16 14:00N 34°25' E 134°13'1018.9
2017-Dec-16 13:30N 34°26' E 134°25'1019.7
2017-Dec-16 13:00N 34°29' E 134°36'1019.9
2017-Dec-16 12:31N 34°33' E 134°47'1020.1
2017-Dec-16 12:00N 34°37' E 134°58'918.8
2017-Dec-16 11:30N 34°36' E 135°09'917.4
2017-Dec-16 11:00N 34°41' E 135°18'1 2.5
2017-Dec-16 10:30N 34°42' E 135°17'0 0.0
2017-Dec-16 10:00N 34°42' E 135°17'0 0.0
2017-Dec-16 09:30N 34°42' E 135°17'0 0.0
2017-Dec-16 09:00N 34°42' E 135°17'0 0.0
2017-Dec-16 08:30N 34°42' E 135°17'0 0.0
2017-Dec-16 08:00N 34°42' E 135°17'0 0.0
2017-Dec-16 07:30N 34°42' E 135°17'0 0.0
2017-Dec-16 07:00N 34°42' E 135°17'0 0.0
2017-Dec-16 06:30N 34°42' E 135°17'0 0.0
2017-Dec-16 06:00N 34°42' E 135°17'0 0.0
2017-Dec-16 05:30N 34°42' E 135°17'0 0.0
2017-Dec-16 05:00N 34°42' E 135°17'0 0.0
2017-Dec-16 04:30N 34°42' E 135°17'0 0.0
2017-Dec-16 04:00N 34°42' E 135°17'0 0.0
2017-Dec-16 03:30N 34°42' E 135°17'0 0.0
2017-Dec-16 03:00N 34°42' E 135°17'0 0.0
2017-Dec-16 02:30N 34°42' E 135°17'0 0.0
2017-Dec-16 02:00N 34°42' E 135°17'0 0.0
2017-Dec-16 01:30N 34°42' E 135°17'0 0.0
2017-Dec-16 01:00N 34°42' E 135°17'0 0.0
2017-Dec-16 00:30N 34°42' E 135°17'0 0.0
2017-Dec-16 00:00N 34°42' E 135°17'0 0.0
2017-Dec-15 23:30N 34°42' E 135°17'0 0.0
2017-Dec-15 23:00N 34°42' E 135°17'2 3.5
2017-Dec-15 22:31N 34°40' E 135°18'815.9
2017-Dec-15 22:01N 34°35' E 135°11'816.6
2017-Dec-15 21:30N 34°37' E 135°02'815.4
2017-Dec-15 21:01N 34°35' E 134°53'917.9
2017-Dec-15 20:30N 34°31' E 134°43'919.0
2017-Dec-15 20:00N 34°27' E 134°32'1019.2
2017-Dec-15 19:30N 34°24' E 134°21'1018.8
2017-Dec-15 19:00N 34°25' E 134°10'7116.1
2017-Dec-15 14:33N 34°02' E 132°48'119.5
2017-Dec-15 14:29N 34°01' E 132°47'919.3
2017-Dec-15 14:00N 33°55' E 132°39'1119.8
2017-Dec-15 13:27N 33°47' E 132°30'919.1
2017-Dec-15 12:59N 33°42' E 132°21'1420.2
2017-Dec-15 12:18N 33°33' E 132°08'720.4
2017-Dec-15 11:57N 33°29' E 132°02'920.6
2017-Dec-15 11:30N 33°23' E 131°52'1020.8
2017-Dec-15 11:00N 33°19' E 131°41'7 9.6
2017-Dec-15 10:19N 33°15' E 131°35'54 3.4
2017-Dec-14 18:27N 33°47' E 132°28'920.1
2017-Dec-14 18:00N 33°54' E 132°35'1020.4
2017-Dec-14 17:31N 34°00' E 132°44'7017.5
2017-Dec-14 13:31N 34°27' E 134°03'017.5
2017-Dec-14 13:30N 34°27' E 134°03'1018.9
2017-Dec-14 13:00N 34°24' E 134°14'918.2
2017-Dec-14 12:30N 34°26' E 134°24'1019.4
2017-Dec-14 12:01N 34°30' E 134°35'1020.5
2017-Dec-14 11:30N 34°33' E 134°47'1121.0
2017-Dec-14 11:00N 34°38' E 134°59'1121.6
2017-Dec-14 10:30N 34°36' E 135°12'713.8
2017-Dec-14 10:00N 34°42' E 135°17'0 0.0
2017-Dec-14 09:28N 34°42' E 135°17'0 0.0
2017-Dec-14 08:58N 34°42' E 135°17'0 0.0
2017-Dec-14 08:28N 34°42' E 135°17'0 0.0
2017-Dec-14 07:58N 34°42' E 135°17'0 0.0
2017-Dec-14 07:28N 34°42' E 135°17'0 0.0
2017-Dec-14 06:58N 34°42' E 135°17'0 0.0
2017-Dec-14 06:28N 34°42' E 135°17'0 0.0
2017-Dec-14 05:58N 34°42' E 135°17'0 0.0
2017-Dec-14 05:28N 34°42' E 135°17'0 0.0
2017-Dec-14 04:58N 34°42' E 135°17'0 0.0
2017-Dec-14 04:28N 34°42' E 135°17'0 0.0
2017-Dec-14 03:55N 34°42' E 135°17'0 0.0
2017-Dec-14 03:28N 34°42' E 135°17'0 0.0
2017-Dec-14 02:58N 34°42' E 135°17'0 0.0
2017-Dec-14 02:28N 34°42' E 135°17'0 0.0
2017-Dec-14 01:58N 34°42' E 135°17'0 0.0
2017-Dec-14 01:28N 34°42' E 135°17'0 0.0
2017-Dec-14 00:58N 34°42' E 135°17'0 0.0
2017-Dec-14 00:28N 34°42' E 135°17'0 0.0
2017-Dec-13 23:58N 34°42' E 135°17'0 0.0
2017-Dec-13 23:28N 34°42' E 135°17'0 0.0
2017-Dec-13 22:58N 34°42' E 135°17'0 0.0
2017-Dec-13 22:28N 34°42' E 135°17'0 0.0
2017-Dec-13 21:58N 34°42' E 135°17'0 0.3
2017-Dec-13 21:31N 34°42' E 135°17'713.5
2017-Dec-13 21:00N 34°36' E 135°13'1019.6
2017-Dec-13 20:30N 34°36' E 135°02'917.5
2017-Dec-13 20:01N 34°34' E 134°51'1020.5
2017-Dec-13 19:30N 34°30' E 134°40'1121.1
2017-Dec-13 19:00N 34°26' E 134°28'1121.2
2017-Dec-13 18:30N 34°24' E 134°16'7416.6
2017-Dec-13 14:02N 34°04' E 132°49'322.3
2017-Dec-13 13:53N 34°01' E 132°46'821.5
2017-Dec-13 13:30N 33°55' E 132°39'1222.0
2017-Dec-13 12:58N 33°47' E 132°29'2322.3
2017-Dec-13 11:56N 33°34' E 132°07'1021.8
2017-Dec-13 11:30N 33°28' E 131°57'1122.4
2017-Dec-13 11:00N 33°22' E 131°46'1120.7
2017-Dec-13 10:29N 33°16' E 131°36'1 0.1
2017-Dec-12 21:17N 33°15' E 131°35'519.6
2017-Dec-12 21:01N 33°19' E 131°40'1122.2
2017-Dec-12 20:30N 33°25' E 131°51'1522.1
2017-Dec-12 19:48N 33°34' E 132°06'1022.2
2017-Dec-12 19:22N 33°40' E 132°15'822.2
2017-Dec-12 19:00N 33°45' E 132°23'1122.0
2017-Dec-12 18:30N 33°52' E 132°34'1121.9
2017-Dec-12 18:00N 33°59' E 132°43'7615.9
2017-Dec-12 13:14N 34°26' E 134°09'520.3
2017-Dec-12 13:00N 34°24' E 134°14'1020.9
2017-Dec-12 12:30N 34°27' E 134°26'1121.6
2017-Dec-12 12:00N 34°31' E 134°38'1020.6
2017-Dec-12 11:30N 34°34' E 134°50'1019.4
2017-Dec-12 11:01N 34°38' E 135°01'1019.3
2017-Dec-12 10:30N 34°36' E 135°12'713.5
2017-Dec-12 10:01N 34°42' E 135°17'0 0.0
2017-Dec-12 09:29N 34°42' E 135°17'0 0.0
2017-Dec-12 08:59N 34°42' E 135°17'0 0.0
2017-Dec-12 08:29N 34°42' E 135°17'0 0.0
2017-Dec-12 07:59N 34°42' E 135°17'0 0.0
2017-Dec-12 07:29N 34°42' E 135°17'0 0.0
2017-Dec-12 06:59N 34°42' E 135°17'0 0.0
2017-Dec-12 06:29N 34°42' E 135°17'0 0.0
2017-Dec-12 05:59N 34°42' E 135°17'0 0.0
2017-Dec-12 05:29N 34°42' E 135°17'0 0.0
2017-Dec-12 04:59N 34°42' E 135°17'0 0.0
2017-Dec-12 04:29N 34°42' E 135°17'0 0.0
2017-Dec-12 03:59N 34°42' E 135°17'0 0.0
2017-Dec-12 03:29N 34°42' E 135°17'0 0.0
2017-Dec-12 02:59N 34°42' E 135°17'0 0.0
2017-Dec-12 02:26N 34°42' E 135°17'0 0.0
2017-Dec-12 01:59N 34°42' E 135°17'0 0.0
2017-Dec-12 01:23N 34°42' E 135°17'0 0.0
2017-Dec-12 00:59N 34°42' E 135°17'0 0.0
2017-Dec-12 00:29N 34°42' E 135°17'0 0.0
2017-Dec-11 23:59N 34°42' E 135°17'0 0.0
2017-Dec-11 23:29N 34°42' E 135°17'0 0.0
2017-Dec-11 22:59N 34°42' E 135°17'0 0.0
2017-Dec-11 22:29N 34°42' E 135°17'0 0.0
2017-Dec-11 21:59N 34°42' E 135°17'0 0.0
2017-Dec-11 21:31N 34°42' E 135°17'510.5
2017-Dec-11 21:01N 34°37' E 135°17'1020.5
2017-Dec-11 20:31N 34°35' E 135°05'918.6
2017-Dec-11 20:01N 34°35' E 134°53'1121.1
2017-Dec-11 19:30N 34°31' E 134°42'1121.4
2017-Dec-11 19:00N 34°27' E 134°30'1121.3
2017-Dec-11 18:31N 34°23' E 134°17'7717.0
2017-Dec-11 13:57N 34°02' E 132°47'1022.2
2017-Dec-11 13:30N 33°55' E 132°39'1322.3
2017-Dec-11 12:55N 33°46' E 132°27'2422.3
2017-Dec-11 11:49N 33°36' E 132°01'721.9
2017-Dec-11 11:30N 33°32' E 131°54'1322.6
2017-Dec-11 10:57N 33°22' E 131°45'1020.7
2017-Dec-11 10:27N 33°15' E 131°35'0 0.0
2017-Dec-10 21:09N 33°16' E 131°35'319.4
2017-Dec-10 20:58N 33°18' E 131°38'1020.6
2017-Dec-10 20:30N 33°23' E 131°48'1021.1
2017-Dec-10 20:00N 33°29' E 131°58'2121.4
2017-Dec-10 19:02N 33°41' E 132°19'121.5
2017-Dec-10 19:00N 33°41' E 132°19'1121.3
2017-Dec-10 18:29N 33°48' E 132°30'1021.1
2017-Dec-10 18:00N 33°55' E 132°38'8017.4
2017-Dec-10 13:24N 34°26' E 134°08'819.8
2017-Dec-10 12:58N 34°25' E 134°18'920.2
2017-Dec-10 12:30N 34°27' E 134°29'1020.4
2017-Dec-10 12:01N 34°31' E 134°40'1019.7
2017-Dec-10 11:30N 34°35' E 134°51'917.4
2017-Dec-10 11:01N 34°37' E 135°02'918.4
2017-Dec-10 10:30N 34°37' E 135°13'612.6
2017-Dec-10 10:00N 34°42' E 135°17'0 0.0
2017-Dec-10 09:30N 34°42' E 135°17'0 0.0
2017-Dec-10 09:00N 34°42' E 135°17'0 0.0
2017-Dec-10 08:30N 34°42' E 135°17'0 0.0
2017-Dec-10 08:00N 34°42' E 135°17'0 0.0
2017-Dec-10 07:30N 34°42' E 135°17'0 0.0
2017-Dec-10 07:00N 34°42' E 135°17'0 0.0
2017-Dec-10 06:30N 34°42' E 135°17'0 0.0
2017-Dec-10 06:00N 34°42' E 135°17'0 0.0
2017-Dec-10 05:30N 34°42' E 135°17'0 0.0
2017-Dec-10 05:00N 34°42' E 135°17'0 0.0
2017-Dec-10 04:30N 34°42' E 135°17'0 0.0
2017-Dec-10 04:00N 34°42' E 135°17'0 0.0
2017-Dec-10 03:30N 34°42' E 135°17'0 0.0
2017-Dec-10 03:00N 34°42' E 135°17'0 0.0
2017-Dec-10 02:30N 34°42' E 135°17'0 0.0
2017-Dec-10 02:00N 34°42' E 135°17'0 0.0
2017-Dec-10 01:30N 34°42' E 135°17'0 0.0
2017-Dec-10 01:00N 34°42' E 135°17'0 0.0
2017-Dec-10 00:30N 34°42' E 135°17'0 0.0
2017-Dec-10 00:00N 34°42' E 135°17'0 0.0
2017-Dec-09 23:30N 34°42' E 135°17'0 0.0
2017-Dec-09 22:57N 34°42' E 135°17'2 5.3
2017-Dec-09 22:31N 34°40' E 135°18'815.5
2017-Dec-09 22:01N 34°35' E 135°11'917.3
2017-Dec-09 21:31N 34°37' E 135°01'918.5
2017-Dec-09 21:01N 34°34' E 134°50'917.6
2017-Dec-09 20:30N 34°30' E 134°41'917.5
2017-Dec-09 20:00N 34°27' E 134°31'918.2
2017-Dec-09 19:31N 34°24' E 134°20'7716.7
2017-Dec-09 14:52N 34°05' E 132°49'719.8
2017-Dec-09 14:31N 33°59' E 132°45'1019.4
2017-Dec-09 14:00N 33°52' E 132°36'1019.1
2017-Dec-09 13:29N 33°46' E 132°27'2219.2
2017-Dec-09 12:22N 33°34' E 132°05'718.9
2017-Dec-09 12:01N 33°30' E 131°59'918.8
2017-Dec-09 11:30N 33°25' E 131°50'918.6
2017-Dec-09 11:00N 33°19' E 131°41'6 0.5
2017-Dec-08 22:12N 33°15' E 131°35'316.4
2017-Dec-08 22:00N 33°18' E 131°37'1020.1
2017-Dec-08 21:30N 33°23' E 131°47'1020.7
2017-Dec-08 21:00N 33°30' E 131°57'2121.1
2017-Dec-08 20:00N 33°41' E 132°19'1221.3
2017-Dec-08 19:27N 33°48' E 132°30'1021.4
2017-Dec-08 18:59N 33°55' E 132°39'1221.0
2017-Dec-08 18:25N 34°04' E 132°48'1018.1
2017-Dec-08 17:52N 34°10' E 132°58'5716.3
2017-Dec-08 14:23N 34°27' E 134°03'820.8
2017-Dec-08 14:00N 34°25' E 134°13'  

Dump ship's entire track history